createdAt,value
2018-12-19T00:02:10.450Z,98.00
2018-12-19T00:04:39.038Z,98.20
2018-12-19T00:07:07.617Z,97.80
2018-12-19T00:09:36.320Z,97.80
2018-12-19T00:12:05.016Z,97.70
2018-12-19T00:14:33.723Z,97.70
2018-12-19T00:17:02.657Z,97.80
2018-12-19T00:19:31.406Z,97.70
2018-12-19T00:22:00.097Z,97.70
2018-12-19T00:24:28.924Z,97.70
2018-12-19T00:26:59.291Z,97.70
2018-12-19T00:29:29.184Z,97.60
2018-12-19T00:31:58.801Z,97.50
2018-12-19T00:34:28.252Z,97.40
2018-12-19T00:36:57.550Z,97.40
2018-12-19T00:39:26.296Z,97.30
2018-12-19T00:44:31.901Z,97.30
2018-12-19T00:47:08.933Z,97.20
2018-12-19T00:49:38.006Z,97.30
2018-12-19T00:52:09.779Z,97.10
2018-12-19T00:55:02.429Z,96.90
2018-12-19T00:57:33.837Z,96.90
2018-12-19T01:00:06.085Z,96.80
2018-12-19T01:02:35.184Z,96.90
2018-12-19T01:05:04.219Z,96.90
2018-12-19T01:07:33.245Z,96.80
2018-12-19T01:10:02.744Z,96.70
2018-12-19T01:12:32.836Z,96.70
2018-12-19T01:15:01.528Z,96.50
2018-12-19T01:17:30.341Z,96.40
2018-12-19T01:19:59.013Z,96.40
2018-12-19T01:22:27.787Z,96.40
2018-12-19T01:25:00.366Z,96.10
2018-12-19T01:27:29.222Z,96.20
2018-12-19T01:29:59.088Z,96.00
2018-12-19T01:32:28.439Z,95.90
2018-12-19T01:34:58.705Z,96.00
2018-12-19T01:37:27.961Z,96.00
2018-12-19T01:39:56.640Z,96.00
2018-12-19T01:42:25.420Z,95.70
2018-12-19T01:44:54.212Z,95.60
2018-12-19T01:47:23.844Z,95.50
2018-12-19T01:49:53.548Z,95.70
2018-12-19T01:52:22.262Z,95.40
2018-12-19T01:54:51.026Z,95.30
2018-12-19T01:57:20.244Z,95.30
2018-12-19T01:59:49.245Z,95.40
2018-12-19T02:02:17.950Z,95.10
2018-12-19T02:04:46.606Z,95.20
2018-12-19T02:07:15.832Z,95.00
2018-12-19T02:09:48.234Z,95.00
2018-12-19T02:12:18.150Z,94.90
2018-12-19T02:14:47.645Z,95.00
2018-12-19T02:17:17.606Z,95.00
2018-12-19T02:19:49.713Z,94.90
2018-12-19T02:22:20.304Z,94.90
2018-12-19T02:24:53.806Z,95.10
2018-12-19T02:27:23.544Z,94.70
2018-12-19T02:29:52.334Z,94.60
2018-12-19T02:32:22.813Z,94.80
2018-12-19T02:34:53.554Z,94.70
2018-12-19T02:37:22.861Z,94.80
2018-12-19T02:39:52.212Z,94.60
2018-12-19T02:42:23.187Z,94.50
2018-12-19T02:44:52.954Z,94.50
2018-12-19T02:47:21.542Z,94.30
2018-12-19T02:49:50.268Z,94.40
2018-12-19T02:52:20.743Z,94.30
2018-12-19T02:54:49.388Z,94.20
2018-12-19T02:57:17.988Z,94.20
2018-12-19T02:59:46.727Z,94.30
2018-12-19T03:02:19.430Z,94.40
2018-12-19T03:04:49.264Z,94.50
2018-12-19T03:07:17.987Z,94.60
2018-12-19T03:09:48.678Z,94.70
2018-12-19T03:12:18.356Z,94.80
2018-12-19T03:14:46.979Z,94.90
2018-12-19T03:17:16.592Z,94.90
2018-12-19T03:19:45.209Z,95.10
2018-12-19T03:22:15.787Z,95.20
2018-12-19T03:24:44.470Z,95.20
2018-12-19T03:27:13.147Z,95.30
2018-12-19T03:29:42.238Z,95.30
2018-12-19T03:32:11.197Z,95.50
2018-12-19T03:34:39.703Z,95.30
2018-12-19T03:37:08.392Z,95.30
2018-12-19T03:39:37.139Z,95.30
2018-12-19T03:42:05.816Z,95.40
2018-12-19T03:44:34.348Z,95.60
2018-12-19T03:47:02.877Z,95.70
2018-12-19T03:49:31.709Z,95.60
2018-12-19T03:52:00.328Z,95.70
2018-12-19T03:54:29.157Z,95.80
2018-12-19T03:56:58.043Z,95.90
2018-12-19T03:59:27.516Z,96.00
2018-12-19T04:01:56.164Z,96.00
2018-12-19T04:04:26.235Z,96.10
2018-12-19T04:06:56.333Z,96.10
2018-12-19T04:09:24.990Z,96.00
2018-12-19T04:11:53.720Z,96.20
2018-12-19T04:14:22.301Z,96.20
2018-12-19T04:16:50.876Z,96.10
2018-12-19T04:19:19.526Z,96.10
2018-12-19T04:21:48.119Z,96.10
2018-12-19T04:24:16.710Z,95.90
2018-12-19T04:26:45.250Z,95.90
2018-12-19T04:29:13.908Z,95.90
2018-12-19T04:31:43.756Z,95.90
2018-12-19T04:34:14.023Z,95.80
2018-12-19T04:36:45.043Z,95.80
2018-12-19T04:39:13.645Z,95.70
2018-12-19T04:41:42.254Z,95.70
2018-12-19T04:44:11.449Z,95.70
2018-12-19T04:46:40.073Z,95.80
2018-12-19T04:49:12.358Z,95.70
2018-12-19T04:51:41.388Z,95.70
2018-12-19T04:54:13.069Z,95.80
2018-12-19T04:56:42.341Z,96.00
2018-12-19T04:59:12.884Z,96.10
2018-12-19T05:01:42.498Z,96.30
2018-12-19T05:04:11.453Z,96.40
2018-12-19T05:06:43.924Z,96.60
2018-12-19T05:09:13.305Z,96.70
2018-12-19T05:11:45.927Z,96.60
2018-12-19T05:14:17.704Z,97.20
2018-12-19T05:16:51.931Z,97.40
2018-12-19T05:19:20.801Z,97.40
2018-12-19T05:21:49.586Z,97.70
2018-12-19T05:24:18.354Z,97.90
2018-12-19T05:26:47.030Z,98.00
2018-12-19T05:29:15.815Z,98.20
2018-12-19T05:31:44.667Z,98.40
2018-12-19T05:34:13.363Z,98.50
2018-12-19T05:36:43.021Z,98.50
2018-12-19T05:39:11.936Z,98.50
2018-12-19T05:41:40.630Z,98.60
2018-12-19T05:44:09.250Z,98.70
2018-12-19T05:46:37.908Z,98.80
2018-12-19T05:49:06.765Z,98.90
2018-12-19T05:51:35.384Z,99.00
2018-12-19T05:54:04.072Z,99.10
2018-12-19T05:56:33.524Z,99.20
2018-12-19T05:59:02.245Z,99.30
2018-12-19T06:01:30.884Z,99.40
2018-12-19T06:04:00.767Z,99.40
2018-12-19T06:06:29.778Z,99.50
2018-12-19T06:08:59.344Z,99.50
2018-12-19T06:11:29.177Z,99.60
2018-12-19T06:13:57.776Z,99.60
2018-12-19T06:16:26.595Z,99.70
2018-12-19T06:18:55.152Z,99.70
2018-12-19T06:21:23.695Z,99.60
2018-12-19T06:23:52.203Z,99.60
2018-12-19T06:26:21.153Z,99.60
2018-12-19T06:28:49.736Z,99.50
2018-12-19T06:31:18.268Z,99.60
2018-12-19T06:33:46.992Z,99.70
2018-12-19T06:36:15.777Z,99.80
2018-12-19T06:38:44.328Z,99.80
2018-12-19T06:41:12.876Z,99.90
2018-12-19T06:43:42.456Z,99.90
2018-12-19T06:46:11.108Z,99.90
2018-12-19T06:48:39.642Z,99.90
2018-12-19T06:51:08.159Z,99.90
2018-12-19T06:53:36.778Z,99.90
2018-12-19T06:56:05.659Z,99.90
2018-12-19T06:58:34.167Z,99.90
2018-12-19T07:01:02.682Z,99.90
2018-12-19T07:03:31.250Z,99.90
2018-12-19T07:05:59.804Z,99.90
2018-12-19T07:08:28.321Z,99.90
2018-12-19T07:10:56.894Z,99.90
2018-12-19T07:13:25.504Z,99.90
2018-12-19T07:15:54.064Z,99.90
2018-12-19T07:18:22.702Z,99.90
2018-12-19T07:20:51.253Z,99.90
2018-12-19T07:23:19.807Z,99.90
2018-12-19T07:25:48.335Z,99.90
2018-12-19T07:28:17.602Z,99.90
2018-12-19T07:30:46.161Z,99.90
2018-12-19T07:33:14.699Z,99.90
2018-12-19T07:35:43.248Z,99.90
2018-12-19T07:38:11.813Z,99.90
2018-12-19T07:40:45.579Z,99.90
2018-12-19T07:43:11.428Z,99.90
2018-12-19T07:45:39.978Z,99.90
2018-12-19T07:48:08.541Z,99.90
2018-12-19T07:50:37.230Z,99.90
2018-12-19T07:53:05.908Z,99.90
2018-12-19T07:55:37.150Z,99.90
2018-12-19T07:58:06.329Z,99.90
2018-12-19T08:00:35.000Z,99.90
2018-12-19T08:03:03.572Z,99.90
2018-12-19T08:05:32.217Z,99.90
2018-12-19T08:08:00.796Z,99.90
2018-12-19T08:10:29.351Z,99.90
2018-12-19T08:12:57.973Z,99.90
2018-12-19T08:15:26.546Z,99.90
2018-12-19T08:17:55.127Z,99.90
2018-12-19T08:20:23.718Z,99.90
2018-12-19T08:22:52.378Z,99.90
2018-12-19T08:25:20.984Z,99.90
2018-12-19T08:27:49.534Z,99.90
2018-12-19T08:30:18.346Z,99.90
2018-12-19T08:32:46.867Z,99.90
2018-12-19T08:35:15.391Z,99.90
2018-12-19T08:37:44.031Z,99.90
2018-12-19T08:40:12.589Z,99.90
2018-12-19T08:42:41.133Z,99.90
2018-12-19T08:45:09.674Z,99.90
2018-12-19T08:47:38.258Z,99.90
2018-12-19T08:50:09.003Z,99.90
2018-12-19T08:52:37.600Z,99.90
2018-12-19T08:55:07.865Z,99.90
2018-12-19T08:57:36.407Z,99.90
2018-12-19T09:00:06.318Z,99.90
2018-12-19T09:02:34.855Z,99.90
2018-12-19T09:05:03.487Z,99.90
2018-12-19T09:07:32.021Z,99.90
2018-12-19T09:10:00.528Z,99.90
2018-12-19T09:12:29.183Z,99.90
2018-12-19T09:14:58.010Z,99.90
2018-12-19T09:17:27.140Z,99.90
2018-12-19T09:19:55.769Z,99.90
2018-12-19T09:22:24.410Z,99.90
2018-12-19T09:24:52.930Z,99.90
2018-12-19T09:27:21.445Z,99.90
2018-12-19T09:29:50.520Z,99.90
2018-12-19T09:32:19.001Z,99.90
2018-12-19T09:34:47.490Z,99.90
2018-12-19T09:37:15.979Z,99.90
2018-12-19T09:39:44.434Z,99.90
2018-12-19T09:42:12.976Z,99.90
2018-12-19T09:44:41.452Z,99.90
2018-12-19T09:47:09.901Z,99.90
2018-12-19T09:49:38.358Z,99.90
2018-12-19T09:52:06.933Z,99.90
2018-12-19T09:54:35.424Z,99.90
2018-12-19T09:57:03.909Z,99.90
2018-12-19T09:59:32.396Z,99.90
2018-12-19T10:02:01.265Z,99.90
2018-12-19T10:04:29.716Z,99.90
2018-12-19T10:06:58.181Z,99.90
2018-12-19T10:09:26.633Z,99.90
2018-12-19T10:11:55.083Z,99.90
2018-12-19T10:14:23.558Z,99.90
2018-12-19T10:16:52.025Z,99.90
2018-12-19T10:19:20.502Z,99.90
2018-12-19T10:21:49.223Z,99.90
2018-12-19T10:24:17.679Z,99.90
2018-12-19T10:26:46.126Z,99.90
2018-12-19T10:29:14.586Z,99.90
2018-12-19T10:31:43.048Z,99.90
2018-12-19T10:34:11.511Z,99.90
2018-12-19T10:36:40.011Z,99.90
2018-12-19T10:39:16.492Z,99.90
2018-12-19T10:41:44.963Z,99.90
2018-12-19T10:44:13.856Z,99.90
2018-12-19T10:46:42.479Z,99.90
2018-12-19T10:49:10.938Z,99.90
2018-12-19T10:51:39.407Z,99.90
2018-12-19T10:54:07.867Z,99.90
2018-12-19T10:56:36.356Z,99.90
2018-12-19T10:59:04.818Z,99.90
2018-12-19T11:01:33.305Z,99.90
2018-12-19T11:04:01.785Z,99.90
2018-12-19T11:06:30.230Z,99.90
2018-12-19T11:08:58.696Z,99.90
2018-12-19T11:11:32.306Z,99.90
2018-12-19T11:13:57.743Z,99.90
2018-12-19T11:16:26.195Z,99.90
2018-12-19T11:18:54.650Z,99.90
2018-12-19T11:21:23.107Z,99.90
2018-12-19T11:23:51.787Z,99.90
2018-12-19T11:26:20.231Z,99.90
2018-12-19T11:28:48.830Z,99.90
2018-12-19T11:31:17.463Z,99.90
2018-12-19T11:33:46.164Z,99.90
2018-12-19T11:36:14.631Z,99.90
2018-12-19T11:38:43.080Z,99.90
2018-12-19T11:41:11.559Z,99.90
2018-12-19T11:43:40.050Z,99.90
2018-12-19T11:46:08.706Z,99.90
2018-12-19T11:48:37.163Z,99.90
2018-12-19T11:51:05.643Z,99.90
2018-12-19T11:53:34.106Z,99.90
2018-12-19T11:56:02.567Z,99.90
2018-12-19T11:58:31.026Z,99.90
2018-12-19T12:00:59.518Z,99.90
2018-12-19T12:03:29.516Z,99.90
2018-12-19T12:05:58.191Z,99.90
2018-12-19T12:08:26.706Z,99.90
2018-12-19T12:10:55.188Z,99.90
2018-12-19T12:13:23.674Z,99.90
2018-12-19T12:15:52.171Z,99.90
2018-12-19T12:18:20.644Z,99.90
2018-12-19T12:20:49.123Z,99.90
2018-12-19T12:23:17.586Z,99.90
2018-12-19T12:25:46.067Z,99.90
2018-12-19T12:28:14.547Z,99.90
2018-12-19T12:30:43.003Z,99.90
2018-12-19T12:33:11.646Z,99.90
2018-12-19T12:35:40.340Z,99.90
2018-12-19T12:38:10.460Z,99.90
2018-12-19T12:40:38.922Z,99.90
2018-12-19T12:43:07.732Z,99.90
2018-12-19T12:45:36.247Z,99.90
2018-12-19T12:48:04.720Z,99.90
2018-12-19T12:50:33.685Z,99.90
2018-12-19T12:53:02.274Z,99.90
2018-12-19T12:55:31.868Z,99.90
2018-12-19T12:58:00.378Z,99.90
2018-12-19T13:00:28.904Z,99.90
2018-12-19T13:02:57.379Z,99.90
2018-12-19T13:05:25.917Z,99.90
2018-12-19T13:07:54.383Z,99.90
2018-12-19T13:10:22.889Z,99.90
2018-12-19T13:12:51.378Z,99.90
2018-12-19T13:15:50.834Z,99.90
2018-12-19T13:18:19.321Z,99.90
2018-12-19T13:20:47.899Z,99.90
2018-12-19T13:23:16.371Z,99.90
2018-12-19T13:25:44.836Z,99.90
2018-12-19T13:28:13.342Z,99.90
2018-12-19T13:30:43.214Z,99.90
2018-12-19T13:33:11.701Z,99.90
2018-12-19T13:35:40.188Z,99.90
2018-12-19T13:38:08.691Z,99.90
2018-12-19T13:40:37.213Z,99.90
2018-12-19T13:43:12.156Z,99.90
2018-12-19T13:45:40.645Z,99.90
2018-12-19T13:48:09.157Z,99.90
2018-12-19T13:50:37.750Z,99.90
2018-12-19T13:53:06.988Z,99.90
2018-12-19T13:55:36.191Z,99.90
2018-12-19T13:58:07.163Z,99.90
2018-12-19T14:00:35.279Z,99.90
2018-12-19T14:03:03.909Z,99.90
2018-12-19T14:05:32.896Z,99.90
2018-12-19T14:08:01.402Z,99.90
2018-12-19T14:10:30.167Z,99.90
2018-12-19T14:12:58.817Z,99.90
2018-12-19T14:15:27.306Z,99.90
2018-12-19T14:17:55.893Z,99.90
2018-12-19T14:20:24.401Z,99.90
2018-12-19T14:22:53.088Z,99.90
2018-12-19T14:25:22.910Z,99.90
2018-12-19T14:27:51.693Z,99.90
2018-12-19T14:30:20.765Z,99.90
2018-12-19T14:32:51.411Z,99.90
2018-12-19T14:35:19.977Z,99.90
2018-12-19T14:37:48.553Z,99.90
2018-12-19T14:40:17.231Z,99.90
2018-12-19T14:42:47.116Z,99.90
2018-12-19T14:45:16.900Z,99.90
2018-12-19T14:47:46.057Z,99.90
2018-12-19T14:50:14.653Z,99.90
2018-12-19T14:52:43.720Z,99.90
2018-12-19T14:55:12.337Z,99.90
2018-12-19T14:57:41.724Z,99.90
2018-12-19T15:00:11.538Z,99.90
2018-12-19T15:02:55.104Z,99.90
2018-12-19T15:05:51.206Z,99.90
2018-12-19T15:11:57.101Z,99.90
2018-12-19T15:14:25.759Z,99.90
2018-12-19T15:16:55.031Z,99.90
2018-12-19T15:19:23.827Z,99.90
2018-12-19T15:21:57.608Z,99.90
2018-12-19T15:24:26.682Z,99.90
2018-12-19T15:27:58.675Z,99.90
2018-12-19T15:30:48.750Z,99.90
2018-12-19T15:33:21.369Z,99.90
2018-12-19T15:35:52.070Z,99.90
2018-12-19T15:38:22.444Z,99.90
2018-12-19T15:40:51.679Z,99.90
2018-12-19T15:43:20.614Z,99.90
2018-12-19T15:45:49.249Z,99.90
2018-12-19T15:48:18.060Z,99.90
2018-12-19T15:50:48.693Z,99.90
2018-12-19T15:53:17.986Z,99.90
2018-12-19T15:55:48.607Z,99.90
2018-12-19T15:58:19.284Z,99.90
2018-12-19T16:00:52.141Z,99.90
2018-12-19T16:03:26.402Z,99.90
2018-12-19T16:06:00.186Z,99.90
2018-12-19T16:08:32.705Z,99.90
2018-12-19T16:11:01.802Z,99.90
2018-12-19T16:13:31.011Z,99.90
2018-12-19T16:16:00.556Z,99.90
2018-12-19T16:18:29.432Z,99.90
2018-12-19T16:20:58.588Z,99.90
2018-12-19T16:23:27.227Z,99.90
2018-12-19T16:25:55.742Z,99.90
2018-12-19T16:28:24.834Z,99.90
2018-12-19T16:30:53.471Z,99.90
2018-12-19T16:33:21.986Z,99.90
2018-12-19T16:35:50.501Z,99.90
2018-12-19T16:38:18.987Z,99.90
2018-12-19T16:40:47.473Z,99.90
2018-12-19T16:43:15.971Z,99.90
2018-12-19T16:45:44.478Z,99.90
2018-12-19T16:48:12.972Z,99.90
2018-12-19T16:50:42.279Z,99.90
2018-12-19T16:53:10.796Z,99.90
2018-12-19T16:55:39.601Z,99.90
2018-12-19T16:58:08.310Z,99.90
2018-12-19T17:00:38.365Z,99.90
2018-12-19T17:03:07.229Z,99.90
2018-12-19T17:05:35.950Z,99.90
2018-12-19T17:08:04.750Z,99.90
2018-12-19T17:10:33.922Z,99.90
2018-12-19T17:13:04.261Z,99.90
2018-12-19T17:15:37.077Z,99.90
2018-12-19T17:18:05.979Z,99.90
2018-12-19T17:20:34.515Z,99.90
2018-12-19T17:23:03.010Z,99.90
2018-12-19T17:25:32.064Z,99.90
2018-12-19T17:28:00.575Z,99.90
2018-12-19T17:30:29.061Z,99.90
2018-12-19T17:32:57.632Z,99.90
2018-12-19T17:35:26.216Z,99.90
2018-12-19T17:37:54.740Z,99.90
2018-12-19T17:40:23.454Z,99.90
2018-12-19T17:43:00.197Z,99.90
2018-12-19T17:45:28.651Z,99.90
2018-12-19T17:47:58.605Z,99.90
2018-12-19T17:50:27.433Z,99.90
2018-12-19T17:52:56.053Z,99.90
2018-12-19T17:55:24.601Z,99.90
2018-12-19T17:57:53.144Z,99.90
2018-12-19T18:00:22.186Z,99.90
2018-12-19T18:02:50.774Z,99.90
2018-12-19T18:05:19.232Z,99.90
2018-12-19T18:07:47.750Z,99.90
2018-12-19T18:10:17.245Z,99.90
2018-12-19T18:12:46.175Z,99.90
2018-12-19T18:15:14.898Z,99.90
2018-12-19T18:17:44.464Z,99.90
2018-12-19T18:20:13.283Z,99.90
2018-12-19T18:22:43.212Z,99.90
2018-12-19T18:25:12.029Z,99.90
2018-12-19T18:27:40.635Z,99.90
2018-12-19T18:30:10.074Z,99.90
2018-12-19T18:32:38.768Z,99.90
2018-12-19T18:35:08.136Z,99.90
2018-12-19T18:37:36.997Z,99.90
2018-12-19T18:40:07.902Z,99.90
2018-12-19T18:42:37.604Z,99.90
2018-12-19T18:45:11.892Z,99.90
2018-12-19T18:47:38.690Z,99.90
2018-12-19T18:50:10.219Z,99.90
2018-12-19T18:52:39.490Z,99.90
2018-12-19T18:55:08.705Z,99.90
2018-12-19T18:57:37.987Z,99.90
2018-12-19T19:00:08.513Z,99.90
2018-12-19T19:02:37.594Z,99.90
2018-12-19T19:05:06.994Z,99.90
2018-12-19T19:07:36.675Z,99.90
2018-12-19T19:10:06.159Z,99.90
2018-12-19T19:12:35.196Z,99.90
2018-12-19T19:15:04.380Z,99.90
2018-12-19T19:17:32.868Z,99.90
2018-12-19T19:20:01.612Z,99.90
2018-12-19T19:22:30.558Z,99.90
2018-12-19T19:24:59.061Z,99.90
2018-12-19T19:27:27.609Z,99.90
2018-12-19T19:29:56.196Z,99.90
2018-12-19T19:32:24.975Z,99.90
2018-12-19T19:34:53.726Z,99.90
2018-12-19T19:37:22.343Z,99.90
2018-12-19T19:39:50.983Z,99.90
2018-12-19T19:42:20.220Z,99.90
2018-12-19T19:44:49.092Z,99.90
2018-12-19T19:47:19.574Z,99.90
2018-12-19T19:49:50.107Z,99.90
2018-12-19T19:52:18.805Z,99.90
2018-12-19T19:54:47.503Z,99.90
2018-12-19T19:57:16.788Z,99.90
2018-12-19T19:59:45.755Z,99.90
2018-12-19T20:02:14.521Z,99.90
2018-12-19T20:04:43.501Z,99.90
2018-12-19T20:07:12.395Z,99.90
2018-12-19T20:09:41.045Z,99.90
2018-12-19T20:12:10.307Z,99.90
2018-12-19T20:14:38.874Z,99.90
2018-12-19T20:17:07.684Z,99.90
2018-12-19T20:19:36.653Z,99.90
2018-12-19T20:22:05.332Z,99.90
2018-12-19T20:24:33.882Z,99.90
2018-12-19T20:27:02.549Z,99.90
2018-12-19T20:29:32.117Z,99.90
2018-12-19T20:32:00.832Z,99.90
2018-12-19T20:34:29.576Z,99.90
2018-12-19T20:36:58.145Z,99.90
2018-12-19T20:39:26.766Z,99.90
2018-12-19T20:41:55.258Z,99.90
2018-12-19T20:44:23.915Z,99.90
2018-12-19T20:46:52.507Z,99.90
2018-12-19T20:49:21.084Z,99.90
2018-12-19T20:51:50.144Z,99.90
2018-12-19T20:54:18.631Z,99.90
2018-12-19T20:56:47.131Z,99.90
2018-12-19T20:59:15.726Z,99.90
2018-12-19T21:01:44.265Z,99.90
2018-12-19T21:04:12.784Z,99.90
2018-12-19T21:06:41.386Z,99.90
2018-12-19T21:09:09.978Z,99.90
2018-12-19T21:11:38.561Z,99.90
2018-12-19T21:14:07.058Z,99.90
2018-12-19T21:16:40.878Z,99.90
2018-12-19T21:19:09.380Z,99.90
2018-12-19T21:21:37.831Z,99.90
2018-12-19T21:24:06.997Z,99.90
2018-12-19T21:26:35.479Z,99.90
2018-12-19T21:29:04.853Z,99.90
2018-12-19T21:31:33.494Z,99.90
2018-12-19T21:34:02.063Z,99.90
2018-12-19T21:36:30.511Z,99.90
2018-12-19T21:38:59.135Z,99.90
2018-12-19T21:41:27.644Z,99.90
2018-12-19T21:43:57.272Z,99.90
2018-12-19T21:46:25.916Z,99.90
2018-12-19T21:48:56.295Z,99.90
2018-12-19T21:51:24.913Z,99.90
2018-12-19T21:53:53.457Z,99.90
2018-12-19T21:56:21.942Z,99.90
2018-12-19T21:58:50.659Z,99.90
2018-12-19T22:01:19.254Z,99.90
2018-12-19T22:03:47.829Z,99.90
2018-12-19T22:06:17.150Z,99.90
2018-12-19T22:08:45.900Z,99.90
2018-12-19T22:11:14.687Z,99.90
2018-12-19T22:13:43.559Z,99.90
2018-12-19T22:16:16.331Z,99.90
2018-12-19T22:18:46.935Z,99.90
2018-12-19T22:21:16.417Z,99.90
2018-12-19T22:23:45.911Z,99.90
2018-12-19T22:26:14.554Z,99.90
2018-12-19T22:28:44.069Z,99.90
2018-12-19T22:31:12.787Z,99.90
2018-12-19T22:33:41.460Z,99.90
2018-12-19T22:36:10.014Z,99.90
2018-12-19T22:38:38.547Z,99.90
2018-12-19T22:41:07.042Z,99.90
2018-12-19T22:43:35.562Z,99.90
2018-12-19T22:46:04.102Z,99.90
2018-12-19T22:48:32.821Z,99.90
2018-12-19T22:51:01.414Z,99.90
2018-12-19T22:53:30.603Z,99.90
2018-12-19T22:55:59.123Z,99.90
2018-12-19T22:58:27.910Z,99.90
2018-12-19T23:01:01.780Z,99.90
2018-12-19T23:03:35.723Z,99.90
2018-12-19T23:06:04.496Z,99.90
2018-12-19T23:08:33.103Z,99.90
2018-12-19T23:11:01.715Z,99.90
2018-12-19T23:13:31.208Z,99.90
2018-12-19T23:15:59.910Z,99.90
2018-12-19T23:18:28.559Z,99.90
2018-12-19T23:20:57.163Z,99.90
2018-12-19T23:23:25.962Z,99.90
2018-12-19T23:25:54.479Z,99.90
2018-12-19T23:28:22.970Z,99.90
2018-12-19T23:30:51.510Z,99.90
2018-12-19T23:33:20.245Z,99.90
2018-12-19T23:35:48.813Z,99.90
2018-12-19T23:38:17.361Z,99.90
2018-12-19T23:40:45.941Z,99.90
2018-12-19T23:43:14.493Z,99.90
2018-12-19T23:45:43.051Z,99.90
2018-12-19T23:48:11.641Z,99.90
2018-12-19T23:50:40.132Z,99.90
2018-12-19T23:53:08.748Z,99.90
2018-12-19T23:55:37.480Z,99.90
2018-12-19T23:58:06.232Z,99.90
